Time;durP1;ratioP1;P1;durP2;ratioP2;P2;SDS_P1;SDS_P2;PMS_P1;PMS_P2;Temp;Humidity;BMP_temperature;BMP_pressure;BME280_temperature;BME280_humidity;BME280_pressure;Samples;Min_cycle;Max_cycle;Signal;HPM_P1;HPM_P2
2023/09/02 09:48:09;;;;;;;3.17;1.40;;;24.80;73.40;;;;;;6162497;23;20220;-92
2023/09/02 09:50:35;;;;;;;3.43;1.07;;;24.80;62.80;;;;;;6194387;23;20164;-93
2023/09/02 09:53:02;;;;;;;2.47;1.50;;;24.70;65.50;;;;;;6193336;23;20173;-91
2023/09/02 09:55:31;;;;;;;2.37;1.50;;;24.90;70.10;;;;;;6210025;23;20204;-92
2023/09/02 09:57:58;;;;;;;1.83;1.30;;;24.90;71.80;;;;;;6224706;23;20167;-92
2023/09/02 10:00:25;;;;;;;2.60;1.60;;;25.00;63.60;;;;;;6222379;23;20171;-94
2023/09/02 10:02:52;;;;;;;2.50;1.30;;;24.90;54.00;;;;;;6224383;23;20160;-93
2023/09/02 10:05:29;;;;;;;3.10;1.63;;;24.80;49.60;;;;;;6199951;23;20211;-93
2023/09/02 10:08:08;;;;;;;3.93;1.53;;;24.80;61.00;;;;;;6226384;23;20151;-93
2023/09/02 10:10:36;;;;;;;2.87;1.30;;;24.70;60.50;;;;;;6226403;23;20163;-92
2023/09/02 10:13:03;;;;;;;4.27;1.40;;;24.80;63.50;;;;;;6225843;23;20184;-89
2023/09/02 10:15:30;;;;;;;2.80;1.27;;;24.90;79.70;;;;;;6226270;23;20196;-90
2023/09/02 10:17:58;;;;;;;4.03;1.67;;;25.10;76.90;;;;;;6201304;23;20167;-93
2023/09/02 10:20:27;;;;;;;2.33;1.30;;;25.50;77.60;;;;;;6228813;23;20179;-91
2023/09/02 10:23:03;;;;;;;3.33;1.73;;;25.80;57.70;;;;;;6224166;23;20585;-92
2023/09/02 10:25:37;;;;;;;4.47;1.40;;;26.00;51.60;;;;;;6224367;23;20179;-91
2023/09/02 10:28:05;;;;;;;2.77;1.63;;;26.20;45.60;;;;;;6221504;23;20569;-91
2023/09/02 10:30:47;;;;;;;2.13;1.33;;;26.40;44.80;;;;;;6223736;23;20164;-92
2023/09/02 10:33:37;;;;;;;2.27;1.40;;;26.60;47.10;;;;;;6223681;23;20160;-92
2023/09/02 10:36:05;;;;;;;3.40;1.20;;;26.70;40.20;;;;;;6221880;23;20219;-90
2023/09/02 10:38:40;;;;;;;5.13;1.20;;;26.70;41.80;;;;;;6205906;23;20160;-93
2023/09/02 10:41:12;;;;;;;3.30;1.50;;;26.80;45.40;;;;;;6228432;23;20187;-93
2023/09/02 10:43:40;;;;;;;1.47;1.03;;;26.90;45.90;;;;;;6225722;23;20140;-92
2023/09/02 10:46:07;;;;;;;2.37;1.37;;;27.10;38.80;;;;;;6228224;23;20239;-93
2023/09/02 10:48:33;;;;;;;3.90;1.43;;;27.10;32.30;;;;;;6227982;23;20237;-90
2023/09/02 10:51:03;;;;;;;2.80;1.30;;;27.10;5.40;;;;;;6226749;23;20459;-93
2023/09/02 10:53:50;;;;;;;2.40;1.23;;;26.80;11.00;;;;;;6224693;23;20175;-91
2023/09/02 10:56:33;;;;;;;4.30;1.37;;;26.80;1.00;;;;;;6230331;23;20190;-91
2023/09/02 10:59:03;;;;;;;1.80;1.30;;;26.70;1.00;;;;;;6235067;23;20196;-89
2023/09/02 11:01:46;;;;;;;1.77;1.30;;;26.50;1.00;;;;;;6235085;23;20153;-92
2023/09/02 11:04:19;;;;;;;3.35;1.08;;;26.20;1.00;;;;;;6225788;23;20223;-91
2023/09/02 11:07:24;;;;;;;5.50;1.13;;;26.10;24.30;;;;;;6203500;23;20171;-92
2023/09/02 11:09:53;;;;;;;2.50;1.25;;;26.00;30.30;;;;;;6139130;23;20201;-93
2023/09/02 11:12:19;;;;;;;2.30;1.23;;;25.80;13.10;;;;;;6139465;23;20166;-92
2023/09/02 11:15:11;;;;;;;2.28;1.10;;;25.70;16.80;;;;;;6195542;23;20194;-92
2023/09/02 11:17:40;;;;;;;2.55;1.00;;;25.60;22.30;;;;;;6224869;23;20160;-93
2023/09/02 11:20:08;;;;;;;3.83;1.05;;;25.70;23.30;;;;;;6224004;23;20491;-91
2023/09/02 11:22:54;;;;;;;2.40;1.13;;;25.80;34.20;;;;;;6225786;23;20152;-92
2023/09/02 11:25:39;;;;;;;3.33;1.40;;;25.90;1.00;;;;;;6226969;23;20184;-94
2023/09/02 11:28:06;;;;;;;3.10;1.50;;;25.80;1.00;;;;;;6226479;23;20163;-93
2023/09/02 11:30:37;;;;;;;3.53;1.10;;;25.60;11.00;;;;;;6224525;23;20187;-92
2023/09/02 11:33:03;;;;;;;3.13;1.33;;;25.50;22.90;;;;;;6225399;23;20160;-93
2023/09/02 11:35:34;;;;;;;3.80;1.27;;;25.50;28.90;;;;;;6225347;23;20192;-93
2023/09/02 11:38:00;;;;;;;1.60;1.30;;;25.30;1.00;;;;;;6222592;23;20235;-92
2023/09/02 11:40:27;;;;;;;2.92;1.10;;;25.20;11.40;;;;;;6199272;23;20188;-92
2023/09/02 11:42:59;;;;;;;2.90;1.10;;;25.20;34.70;;;;;;6224125;23;20483;-93
2023/09/02 11:45:35;;;;;;;2.05;1.10;;;25.20;10.60;;;;;;6223213;23;20173;-91
2023/09/02 11:48:06;;;;;;;2.10;1.20;;;25.20;35.50;;;;;;6224075;23;20234;-92
2023/09/02 11:50:32;;;;;;;3.88;1.10;;;25.40;22.30;;;;;;6225764;23;20160;-92
2023/09/02 11:52:58;;;;;;;2.38;1.50;;;25.40;20.70;;;;;;6234776;23;20198;-91
2023/09/02 11:55:25;;;;;;;2.58;0.90;;;25.30;7.10;;;;;;6226988;23;20199;-91
2023/09/02 11:57:54;;;;;;;4.80;1.20;;;25.40;39.40;;;;;;6227534;23;20192;-93
2023/09/02 12:00:21;;;;;;;2.28;1.30;;;25.60;37.60;;;;;;6225506;23;20161;-94
2023/09/02 12:02:48;;;;;;;2.13;1.10;;;25.80;38.20;;;;;;6232139;23;20156;-92
2023/09/02 12:05:14;;;;;;;4.22;1.15;;;26.10;6.30;;;;;;6234796;23;20188;-91
2023/09/02 12:07:45;;;;;;;2.53;1.20;;;26.10;16.60;;;;;;6222841;23;20156;-92
2023/09/02 12:10:16;;;;;;;5.50;1.27;;;26.10;1.00;;;;;;6240942;23;20148;-87
2023/09/02 12:12:45;;;;;;;4.18;1.45;;;26.10;1.00;;;;;;6231218;23;20526;-91
2023/09/02 12:15:31;;;;;;;2.65;1.02;;;26.10;1.00;;;;;;6226280;23;20248;-92
2023/09/02 12:17:57;;;;;;;1.77;1.20;;;26.00;5.60;;;;;;6223866;23;20190;-91
2023/09/02 12:20:23;;;;;;;3.05;1.10;;;25.90;4.40;;;;;;6227018;23;20156;-92
2023/09/02 12:22:50;;;;;;;1.45;1.00;;;25.90;6.80;;;;;;6224879;23;20156;-90
2023/09/02 12:25:24;;;;;;;2.47;1.08;;;25.80;1.60;;;;;;6230337;23;20184;-91
2023/09/02 12:28:07;;;;;;;2.75;1.27;;;25.80;25.20;;;;;;6223955;23;20159;-93
2023/09/02 12:30:33;;;;;;;2.53;1.00;;;26.00;30.10;;;;;;6228740;23;20175;-92
2023/09/02 12:32:59;;;;;;;1.55;0.95;;;26.10;33.30;;;;;;6222341;23;20161;-88
2023/09/02 12:35:25;;;;;;;2.38;1.00;;;26.40;23.40;;;;;;6243693;23;20196;-91
2023/09/02 12:38:01;;;;;;;3.17;1.10;;;26.60;12.80;;;;;;6224347;23;20164;-92
2023/09/02 12:40:27;;;;;;;2.25;0.70;;;26.90;1.00;;;;;;6224967;23;20220;-93
2023/09/02 12:42:54;;;;;;;2.05;0.82;;;26.90;1.00;;;;;;6224882;23;20164;-90
2023/09/02 12:45:28;;;;;;;0.82;0.77;;;26.90;1.00;;;;;;6224574;23;20177;-91
2023/09/02 12:47:56;;;;;;;1.52;0.77;;;26.70;1.00;;;;;;6225462;23;20215;-90
2023/09/02 12:50:23;;;;;;;1.17;0.82;;;26.60;1.00;;;;;;6224152;23;20167;-90
2023/09/02 12:52:57;;;;;;;1.75;1.20;;;26.60;1.00;;;;;;6225141;23;20248;-92
2023/09/02 12:55:23;;;;;;;1.40;0.90;;;26.60;1.00;;;;;;6225265;23;20196;-91
2023/09/02 12:57:50;;;;;;;2.47;1.10;;;26.70;1.00;;;;;;6224550;23;20612;-90
2023/09/02 13:00:16;;;;;;;1.52;0.98;;;26.70;1.00;;;;;;6225096;23;20291;-91
2023/09/02 13:02:41;;;;;;;4.22;0.90;;;26.50;1.00;;;;;;6223474;23;20167;-90
2023/09/02 13:05:07;;;;;;;2.10;0.80;;;26.40;1.00;;;;;;6224379;23;20184;-91
2023/09/02 13:07:33;;;;;;;4.50;1.00;;;26.40;1.00;;;;;;6225969;23;20240;-88
2023/09/02 13:09:59;;;;;;;6.68;1.20;;;26.30;1.00;;;;;;6224130;23;20227;-87
2023/09/02 13:12:27;;;;;;;2.42;1.20;;;25.40;1.00;;;;;;6199480;23;20160;-92
2023/09/02 13:14:53;;;;;;;1.90;0.98;;;26.30;1.00;;;;;;6223798;23;20538;-93
2023/09/02 13:17:19;;;;;;;1.88;0.90;;;26.40;1.00;;;;;;6224225;23;20156;-90
2023/09/02 13:19:46;;;;;;;1.20;0.98;;;26.30;1.00;;;;;;6225849;23;20156;-88
2023/09/02 13:22:12;;;;;;;3.53;1.02;;;26.20;1.00;;;;;;6224441;23;20157;-92
2023/09/02 13:24:38;;;;;;;1.17;0.90;;;26.10;1.00;;;;;;6224799;23;20540;-91
2023/09/02 13:27:05;;;;;;;1.92;1.05;;;25.90;1.00;;;;;;6225085;23;20160;-89
2023/09/02 13:29:32;;;;;;;4.82;1.10;;;25.80;1.00;;;;;;6224594;23;20615;-91
2023/09/02 13:32:05;;;;;;;2.28;1.00;;;25.90;1.00;;;;;;6226473;23;20163;-91
2023/09/02 13:34:33;;;;;;;3.38;1.10;;;25.90;1.00;;;;;;6224662;23;20236;-91
2023/09/02 13:37:11;;;;;;;2.83;1.02;;;25.90;1.00;;;;;;6223322;23;20159;-90
2023/09/02 13:39:37;;;;;;;2.38;1.00;;;25.90;1.00;;;;;;6225917;23;20184;-89
2023/09/02 13:42:04;;;;;;;1.42;0.70;;;25.90;1.00;;;;;;6232258;23;20183;-91
2023/09/02 13:44:30;;;;;;;0.93;0.63;;;25.90;1.00;;;;;;6236495;23;20160;-94
2023/09/02 13:47:05;;;;;;;2.13;1.20;;;26.00;1.00;;;;;;6223249;23;20624;-86
2023/09/02 13:49:32;;;;;;;1.48;0.90;;;26.10;1.00;;;;;;6222365;23;20540;-91
2023/09/02 13:51:58;;;;;;;1.02;0.88;;;26.20;1.00;;;;;;6221686;23;20160;-93
2023/09/02 13:54:26;;;;;;;1.88;0.90;;;26.20;1.00;;;;;;6222399;23;20188;-94
2023/09/02 13:56:51;;;;;;;1.90;0.90;;;26.10;1.00;;;;;;6229808;23;20163;-91
2023/09/02 13:59:17;;;;;;;1.45;0.90;;;26.00;1.00;;;;;;6202125;23;20171;-91
2023/09/02 14:01:43;;;;;;;2.72;1.00;;;25.90;1.00;;;;;;6225786;23;20141;-88
2023/09/02 14:04:11;;;;;;;2.20;1.02;;;25.80;1.00;;;;;;6228448;23;20152;-92
2023/09/02 14:06:37;;;;;;;1.13;1.00;;;25.70;1.00;;;;;;6193594;23;20641;-92
2023/09/02 14:09:03;;;;;;;2.40;1.00;;;25.60;1.00;;;;;;6242606;23;20150;-90
2023/09/02 14:11:31;;;;;;;4.25;1.05;;;25.50;1.00;;;;;;6220656;23;20188;-92
2023/09/02 14:14:00;;;;;;;2.38;1.23;;;25.40;1.00;;;;;;6221893;23;20169;-91
2023/09/02 14:16:27;;;;;;;3.42;1.90;;;25.30;1.00;;;;;;6220626;23;20176;-92
2023/09/02 14:18:53;;;;;;;2.40;2.20;;;25.20;1.00;;;;;;6219573;23;20219;-92
2023/09/02 14:21:19;;;;;;;4.20;2.92;;;25.10;1.60;;;;;;6220146;23;20160;-92
2023/09/02 14:23:44;;;;;;;3.42;2.60;;;25.00;14.20;;;;;;6226011;23;20239;-89
2023/09/02 14:26:10;;;;;;;7.03;2.30;;;25.00;1.30;;;;;;6224186;23;20180;-90
2023/09/02 14:28:35;;;;;;;2.75;2.00;;;25.00;6.70;;;;;;6222925;23;20164;-88
2023/09/02 14:31:01;;;;;;;7.63;2.17;;;25.10;5.90;;;;;;6222484;23;20160;-93
2023/09/02 14:33:27;;;;;;;4.03;2.13;;;25.10;1.00;;;;;;6221507;23;20196;-91
2023/09/02 14:35:53;;;;;;;3.17;2.10;;;25.30;16.90;;;;;;6221011;23;20191;-92
2023/09/02 14:38:19;;;;;;;5.63;1.90;;;25.40;1.00;;;;;;6222170;23;20156;-90
2023/09/02 14:40:45;;;;;;;4.87;2.43;;;25.40;1.40;;;;;;6222626;23;20156;-92
2023/09/02 14:43:10;;;;;;;5.25;2.30;;;25.80;4.40;;;;;;6221608;23;20156;-89
2023/09/02 14:45:36;;;;;;;2.40;1.60;;;25.60;1.00;;;;;;6222115;23;20207;-92
2023/09/02 14:48:02;;;;;;;3.33;2.10;;;25.60;1.00;;;;;;6174158;23;1123598;-93
2023/09/02 14:50:28;;;;;;;3.83;1.77;;;25.80;1.00;;;;;;6222555;23;20160;-91
2023/09/02 14:52:54;;;;;;;3.03;1.90;;;25.90;1.00;;;;;;6222269;23;20292;-90
2023/09/02 14:55:20;;;;;;;4.13;2.10;;;26.00;8.10;;;;;;6222217;23;20188;-91
2023/09/02 14:57:48;;;;;;;2.73;1.63;;;26.10;1.00;;;;;;6222661;23;20163;-91
2023/09/02 15:00:15;;;;;;;2.57;1.60;;;25.90;1.00;;;;;;6224824;23;20156;-92
2023/09/02 15:02:42;;;;;;;2.80;1.50;;;25.90;1.00;;;;;;6224934;23;20156;-92
2023/09/02 15:05:16;;;;;;;2.53;1.37;;;25.50;1.00;;;;;;6223591;23;20183;-90
2023/09/02 15:07:43;;;;;;;3.77;1.30;;;25.40;1.00;;;;;;6221786;23;20613;-91
2023/09/02 15:10:17;;;;;;;4.57;1.73;;;25.50;1.00;;;;;;6222531;23;20287;-92
2023/09/02 15:12:43;;;;;;;4.03;1.70;;;25.60;1.00;;;;;;6222715;23;20223;-91
2023/09/02 15:15:09;;;;;;;3.40;1.50;;;25.50;1.00;;;;;;6224900;23;20199;-92
2023/09/02 15:17:35;;;;;;;2.70;1.40;;;25.50;1.00;;;;;;6225290;23;20218;-92
2023/09/02 15:20:01;;;;;;;2.37;1.50;;;25.40;1.00;;;;;;6224406;23;20214;-92
2023/09/02 15:22:27;;;;;;;5.07;1.70;;;24.90;1.00;;;;;;6225428;23;20156;-92
2023/09/02 15:24:52;;;;;;;3.87;1.63;;;25.40;1.00;;;;;;6225357;23;20242;-92
2023/09/02 15:27:23;;;;;;;2.27;1.33;;;25.50;1.00;;;;;;6227276;23;20651;-91
2023/09/02 15:29:50;;;;;;;1.93;1.07;;;25.50;1.00;;;;;;6225830;23;20201;-92
2023/09/02 15:32:16;;;;;;;3.07;1.43;;;25.60;1.00;;;;;;6225199;23;20164;-92
2023/09/02 15:34:46;;;;;;;2.47;1.63;;;25.80;1.00;;;;;;6225619;23;20195;-93
2023/09/02 15:37:22;;;;;;;3.17;1.30;;;25.80;1.00;;;;;;6227209;23;20175;-92
2023/09/02 15:39:54;;;;;;;2.60;1.50;;;25.80;1.00;;;;;;6228966;23;20147;-90
2023/09/02 15:42:20;;;;;;;2.70;1.40;;;25.80;1.00;;;;;;6233106;23;20167;-92
2023/09/02 15:44:47;;;;;;;4.40;1.43;;;25.80;1.00;;;;;;6222176;23;20204;-92
2023/09/02 15:47:13;;;;;;;1.53;1.37;;;25.80;1.00;;;;;;6223161;23;20195;-91
2023/09/02 15:49:38;;;;;;;4.07;1.33;;;25.70;1.00;;;;;;6223052;23;20179;-90
2023/09/02 15:52:05;;;;;;;3.10;1.87;;;25.70;1.00;;;;;;6222111;23;20590;-90
2023/09/02 15:54:31;;;;;;;1.92;1.35;;;25.70;1.00;;;;;;6222516;23;20187;-90
2023/09/02 15:56:57;;;;;;;2.53;1.20;;;25.80;1.00;;;;;;6225697;23;20206;-91
2023/09/02 15:59:23;;;;;;;4.73;1.53;;;25.90;1.00;;;;;;6225326;23;20160;-87
2023/09/02 16:01:50;;;;;;;1.80;1.20;;;25.90;1.00;;;;;;6235039;23;20161;-93
2023/09/02 16:04:15;;;;;;;3.60;1.30;;;25.90;1.00;;;;;;6229712;23;20156;-87
2023/09/02 16:06:41;;;;;;;3.30;1.50;;;25.70;1.00;;;;;;6227837;23;20169;-90
2023/09/02 16:09:06;;;;;;;2.10;1.00;;;25.70;1.00;;;;;;6222784;23;20175;-91
2023/09/02 16:11:32;;;;;;;3.43;1.27;;;25.60;1.00;;;;;;6223534;23;20160;-88
2023/09/02 16:13:57;;;;;;;2.88;1.00;;;25.40;1.00;;;;;;6223091;23;20252;-92
2023/09/02 16:16:23;;;;;;;2.28;1.10;;;25.30;1.00;;;;;;6223586;23;20195;-90
2023/09/02 16:18:49;;;;;;;1.77;1.20;;;25.20;1.00;;;;;;6222793;23;20191;-92
2023/09/02 16:21:17;;;;;;;3.07;1.43;;;25.10;2.40;;;;;;6222819;23;20159;-92
2023/09/02 16:23:43;;;;;;;2.83;1.23;;;25.10;4.20;;;;;;6223980;23;20152;-92
2023/09/02 16:26:09;;;;;;;1.40;0.90;;;25.00;9.40;;;;;;6222229;23;20625;-89
2023/09/02 16:28:39;;;;;;;1.43;1.10;;;25.00;13.50;;;;;;6225169;23;20179;-91
2023/09/02 16:31:05;;;;;;;1.97;1.40;;;25.00;1.00;;;;;;6223463;23;20555;-90
2023/09/02 16:33:31;;;;;;;1.83;1.30;;;25.00;1.80;;;;;;6223671;23;20194;-88
2023/09/02 16:35:58;;;;;;;4.40;1.70;;;24.80;12.60;;;;;;6224776;23;20196;-91
2023/09/02 16:38:27;;;;;;;4.40;1.87;;;24.60;22.00;;;;;;6224307;23;20243;-91
2023/09/02 16:40:53;;;;;;;4.07;2.17;;;24.40;25.90;;;;;;6199291;23;20163;-92
2023/09/02 16:43:19;;;;;;;3.93;2.60;;;24.30;33.50;;;;;;6223649;23;20156;-89
2023/09/02 16:45:45;;;;;;;4.77;3.10;;;24.10;45.70;;;;;;6225978;23;20187;-92
2023/09/02 16:48:16;;;;;;;3.10;2.60;;;24.00;55.60;;;;;;6226323;23;20202;-91
2023/09/02 16:50:45;;;;;;;3.00;2.50;;;23.90;64.50;;;;;;6224004;23;20473;-92
2023/09/02 16:53:14;;;;;;;3.30;2.87;;;23.90;68.30;;;;;;6224655;23;20152;-90
2023/09/02 16:55:44;;;;;;;3.90;2.87;;;23.80;70.20;;;;;;6224204;23;20188;-91
2023/09/02 16:58:19;;;;;;;7.20;3.00;;;23.70;76.20;;;;;;6221643;23;20149;-92
2023/09/02 17:00:44;;;;;;;3.37;2.80;;;23.70;67.70;;;;;;6223059;23;20152;-92
2023/09/02 17:03:18;;;;;;;3.43;3.13;;;23.60;71.50;;;;;;6223843;23;20535;-91
2023/09/02 17:05:45;;;;;;;5.40;3.40;;;23.60;79.50;;;;;;6223410;23;20180;-91
2023/09/02 17:08:17;;;;;;;5.47;4.03;;;23.50;86.30;;;;;;6223654;23;20221;-91
2023/09/02 17:10:42;;;;;;;6.53;4.00;;;23.50;92.30;;;;;;6225218;23;20145;-91
2023/09/02 17:13:09;;;;;;;6.67;4.83;;;23.60;94.30;;;;;;6223399;23;20267;-93
2023/09/02 17:15:37;;;;;;;7.47;6.47;;;23.30;95.20;;;;;;6222716;23;20192;-92
2023/09/02 17:18:06;;;;;;;6.73;5.50;;;23.10;99.80;;;;;;6225246;23;20475;-92
2023/09/02 17:20:37;;;;;;;7.97;5.47;;;23.10;99.90;;;;;;6223530;23;20193;-92
2023/09/02 17:23:09;;;;;;;5.87;5.37;;;22.90;99.90;;;;;;6225303;23;20609;-90
2023/09/02 17:25:36;;;;;;;6.50;5.67;;;22.80;99.90;;;;;;6222729;23;20180;-91
2023/09/02 17:28:02;;;;;;;5.87;5.30;;;23.00;99.90;;;;;;6222842;23;20188;-91
2023/09/02 17:30:30;;;;;;;6.53;5.93;;;22.70;99.90;;;;;;6224677;23;20162;-90
2023/09/02 17:32:56;;;;;;;6.60;5.97;;;22.60;99.90;;;;;;6223518;23;20171;-90
2023/09/02 17:35:22;;;;;;;7.33;5.87;;;22.50;99.90;;;;;;6223524;23;20180;-92
2023/09/02 17:37:48;;;;;;;7.73;6.10;;;22.30;99.90;;;;;;6223864;23;20208;-92
2023/09/02 17:40:13;;;;;;;7.33;6.00;;;22.20;99.90;;;;;;6223307;23;20156;-92
2023/09/02 17:42:42;;;;;;;6.87;6.23;;;22.20;99.90;;;;;;6223997;23;20613;-91
2023/09/02 17:45:10;;;;;;;7.00;6.33;;;22.10;99.90;;;;;;6222441;23;20180;-91
2023/09/02 17:47:37;;;;;;;7.63;6.40;;;22.10;99.90;;;;;;6222169;23;20228;-91
2023/09/02 17:50:08;;;;;;;7.17;6.47;;;22.00;99.90;;;;;;6223041;23;20161;-91
2023/09/02 17:52:34;;;;;;;7.00;6.30;;;21.90;99.90;;;;;;6223783;23;20152;-92
2023/09/02 17:55:00;;;;;;;7.70;7.00;;;21.80;99.90;;;;;;6224246;23;20238;-92
2023/09/02 17:57:26;;;;;;;7.07;6.37;;;21.60;99.90;;;;;;6224574;23;20574;-90
2023/09/02 17:59:51;;;;;;;7.87;6.53;;;21.60;99.90;;;;;;6223453;23;20175;-90
2023/09/02 18:02:17;;;;;;;9.03;6.37;;;22.60;99.90;;;;;;6223183;23;20234;-91
2023/09/02 18:04:43;;;;;;;7.40;6.70;;;21.40;99.90;;;;;;6222873;23;20180;-91
2023/09/02 18:07:08;;;;;;;8.10;7.23;;;21.40;99.90;;;;;;6223063;23;20160;-92
2023/09/02 18:09:34;;;;;;;7.67;6.50;;;21.90;99.90;;;;;;6223418;23;20257;-93
2023/09/02 18:12:00;;;;;;;6.70;6.00;;;21.20;99.90;;;;;;6222920;23;20196;-92
2023/09/02 18:14:25;;;;;;;7.13;6.43;;;21.00;99.90;;;;;;6223214;23;20187;-92
2023/09/02 18:16:51;;;;;;;7.80;6.37;;;21.20;99.90;;;;;;6223904;23;20589;-91
2023/09/02 18:19:17;;;;;;;8.97;6.73;;;20.90;99.90;;;;;;6220401;23;20163;-92
2023/09/02 18:21:43;;;;;;;7.30;6.60;;;20.90;99.90;;;;;;6220639;23;20164;-92
2023/09/02 18:24:09;;;;;;;9.13;7.40;;;21.90;99.90;;;;;;6221507;23;20152;-89
2023/09/02 18:26:36;;;;;;;9.47;6.70;;;20.80;99.90;;;;;;6230720;23;20183;-93
2023/09/02 18:29:02;;;;;;;8.43;7.03;;;21.10;99.90;;;;;;6223223;23;20156;-91
2023/09/02 18:31:27;;;;;;;8.83;7.10;;;20.60;99.90;;;;;;6220560;23;20164;-92
2023/09/02 18:33:54;;;;;;;8.23;7.23;;;20.50;99.90;;;;;;6243680;23;20159;-85
2023/09/02 18:36:22;;;;;;;7.80;7.10;;;20.80;99.90;;;;;;6225475;23;20287;-92
2023/09/02 18:38:47;;;;;;;8.23;7.43;;;20.70;99.90;;;;;;6221435;23;20167;-90
2023/09/02 18:41:13;;;;;;;8.27;7.47;;;21.10;99.90;;;;;;6222411;23;20497;-92
2023/09/02 18:43:39;;;;;;;7.87;7.13;;;20.30;99.90;;;;;;6221541;23;20162;-91
2023/09/02 18:46:04;;;;;;;8.77;7.67;;;20.30;99.90;;;;;;6220376;23;20172;-91
2023/09/02 18:48:30;;;;;;;8.17;7.33;;;20.20;99.90;;;;;;6220938;23;20179;-91
2023/09/02 18:50:56;;;;;;;8.97;7.80;;;20.20;99.90;;;;;;6220523;23;20190;-91
2023/09/02 18:53:25;;;;;;;10.63;8.13;;;20.00;99.90;;;;;;6221363;23;20215;-89
2023/09/02 18:55:51;;;;;;;8.80;7.90;;;20.00;99.90;;;;;;6223577;23;20195;-91
2023/09/02 18:58:16;;;;;;;11.83;8.47;;;20.10;99.90;;;;;;6224157;23;20240;-88
2023/09/02 19:00:42;;;;;;;9.83;7.83;;;20.20;99.90;;;;;;6224804;23;20495;-89
2023/09/02 19:03:07;;;;;;;9.17;7.80;;;19.90;99.90;;;;;;6221826;23;20183;-90
2023/09/02 19:05:33;;;;;;;9.80;8.13;;;20.00;99.90;;;;;;6222713;23;20230;-90
2023/09/02 19:07:59;;;;;;;8.53;7.63;;;19.90;99.90;;;;;;6222667;23;20163;-91
2023/09/02 19:10:25;;;;;;;9.53;7.40;;;20.00;99.90;;;;;;6221572;23;20216;-91
2023/09/02 19:12:51;;;;;;;9.43;8.13;;;19.80;99.90;;;;;;6221525;23;20220;-92
2023/09/02 19:15:16;;;;;;;9.10;8.10;;;19.80;99.90;;;;;;6221487;23;20254;-91
2023/09/02 19:17:42;;;;;;;7.97;7.20;;;19.60;99.90;;;;;;6197499;23;20167;-90
2023/09/02 19:20:08;;;;;;;9.00;7.80;;;19.70;99.90;;;;;;6195737;23;20187;-90
2023/09/02 19:22:39;;;;;;;10.47;7.60;;;19.70;99.90;;;;;;6222264;23;20207;-92
2023/09/02 19:25:10;;;;;;;9.47;7.73;;;20.10;99.90;;;;;;6222924;23;20191;-92
2023/09/02 19:27:36;;;;;;;11.53;7.90;;;19.60;99.90;;;;;;6223714;23;20505;-93
2023/09/02 19:30:01;;;;;;;9.80;7.67;;;19.50;99.90;;;;;;6221927;23;20160;-92
2023/09/02 19:32:27;;;;;;;9.23;8.33;;;19.50;99.90;;;;;;6221514;23;20167;-88
2023/09/02 19:34:55;;;;;;;8.70;7.90;;;19.50;99.90;;;;;;6222861;23;20246;-93
2023/09/02 19:37:20;;;;;;;8.40;7.60;;;19.50;99.90;;;;;;6222563;23;20160;-93
2023/09/02 19:39:46;;;;;;;9.70;7.43;;;19.50;99.90;;;;;;6222401;23;20170;-89
2023/09/02 19:42:11;;;;;;;8.67;7.77;;;19.50;99.90;;;;;;6222776;23;20152;-90
2023/09/02 19:44:37;;;;;;;10.03;7.53;;;19.50;99.90;;;;;;6223079;23;20172;-90
2023/09/02 19:47:03;;;;;;;7.97;7.20;;;19.60;99.90;;;;;;6223315;23;20153;-93
2023/09/02 19:49:29;;;;;;;8.73;7.80;;;19.40;99.90;;;;;;6221831;23;20596;-92
2023/09/02 19:51:54;;;;;;;9.10;7.77;;;19.40;99.90;;;;;;6228209;23;20216;-89
2023/09/02 19:54:20;;;;;;;10.03;8.90;;;19.40;99.90;;;;;;6229309;23;20164;-91
2023/09/02 19:56:46;;;;;;;11.17;8.27;;;19.80;99.90;;;;;;6224346;23;20229;-91
2023/09/02 19:59:12;;;;;;;9.27;8.27;;;19.40;99.90;;;;;;6223068;23;20163;-91
2023/09/02 20:01:38;;;;;;;8.97;8.07;;;19.60;99.90;;;;;;6223365;23;20161;-91
2023/09/02 20:04:05;;;;;;;8.73;7.83;;;19.80;99.90;;;;;;6198893;23;20555;-91
2023/09/02 20:06:31;;;;;;;8.73;7.83;;;19.30;99.90;;;;;;6225580;23;20176;-91
2023/09/02 20:08:57;;;;;;;8.53;7.67;;;19.60;99.90;;;;;;6223906;23;20175;-90
2023/09/02 20:11:23;;;;;;;9.07;8.23;;;19.30;99.90;;;;;;6224599;23;20187;-91
2023/09/02 20:13:49;;;;;;;8.13;7.43;;;19.30;99.90;;;;;;6221675;23;20604;-90
2023/09/02 20:16:15;;;;;;;8.47;7.60;;;19.30;99.90;;;;;;6220880;23;20218;-89
2023/09/02 20:18:41;;;;;;;10.83;7.47;;;19.30;99.90;;;;;;6221135;23;20215;-92
2023/09/02 20:21:07;;;;;;;9.87;8.53;;;19.20;99.90;;;;;;6222612;23;20218;-90
2023/09/02 20:23:33;;;;;;;9.10;8.20;;;20.50;99.90;;;;;;6222093;23;20156;-89
2023/09/02 20:25:58;;;;;;;9.07;8.17;;;19.10;99.90;;;;;;6194799;23;20184;-91
2023/09/02 20:28:24;;;;;;;9.47;8.47;;;19.10;99.90;;;;;;6219984;23;20161;-91
2023/09/02 20:30:51;;;;;;;10.03;9.03;;;19.10;99.90;;;;;;6219213;23;20675;-91
2023/09/02 20:33:17;;;;;;;10.27;8.97;;;20.20;99.90;;;;;;6219597;23;20191;-92
2023/09/02 20:35:43;;;;;;;9.67;8.07;;;19.10;99.90;;;;;;6221095;23;20649;-91
2023/09/02 20:38:08;;;;;;;11.17;9.07;;;19.00;99.90;;;;;;6218539;23;20183;-88
2023/09/02 20:40:38;;;;;;;10.67;8.43;;;19.00;99.90;;;;;;6227706;23;20221;-89
2023/09/02 20:43:05;;;;;;;10.07;8.83;;;18.90;99.90;;;;;;6233828;23;20171;-92
2023/09/02 20:45:40;;;;;;;13.37;9.37;;;19.00;99.90;;;;;;6224790;23;20176;-90
2023/09/02 20:48:09;;;;;;;10.17;8.67;;;19.10;99.90;;;;;;6198654;23;20178;-91
2023/09/02 20:50:39;;;;;;;10.63;8.70;;;19.60;99.90;;;;;;6223576;23;20184;-91
2023/09/02 20:53:05;;;;;;;10.10;8.50;;;19.50;99.90;;;;;;6225044;23;20500;-90
2023/09/02 20:55:31;;;;;;;10.83;8.80;;;18.90;99.90;;;;;;6223686;23;20192;-89
2023/09/02 20:57:57;;;;;;;7.70;6.90;;;18.80;99.90;;;;;;6224117;23;20203;-91
2023/09/02 21:00:24;;;;;;;9.00;7.87;;;19.10;99.90;;;;;;6227396;23;20157;-89
2023/09/02 21:02:54;;;;;;;8.90;8.00;;;19.00;99.90;;;;;;6233969;23;20164;-90
2023/09/02 21:05:19;;;;;;;9.13;7.90;;;18.80;99.90;;;;;;6223092;23;20168;-90
2023/09/02 21:07:48;;;;;;;7.93;7.13;;;18.70;99.90;;;;;;6197397;23;20187;-90
2023/09/02 21:10:14;;;;;;;7.43;6.73;;;18.70;99.90;;;;;;6224062;23;20160;-91
2023/09/02 21:12:41;;;;;;;9.77;7.37;;;18.70;99.90;;;;;;6222369;23;20212;-89
2023/09/02 21:15:08;;;;;;;8.43;7.20;;;18.70;99.90;;;;;;6222775;23;20192;-92
2023/09/02 21:17:39;;;;;;;8.33;7.53;;;18.60;99.90;;;;;;6223103;23;20156;-91
2023/09/02 21:20:06;;;;;;;8.77;7.77;;;18.60;99.90;;;;;;6223689;23;20195;-89
2023/09/02 21:22:35;;;;;;;9.33;8.43;;;18.00;99.90;;;;;;6226371;23;20156;-91
2023/09/02 21:25:10;;;;;;;10.47;8.00;;;18.60;99.90;;;;;;6224899;23;20186;-91
2023/09/02 21:27:41;;;;;;;10.10;9.07;;;18.80;99.90;;;;;;6224596;23;20156;-92
2023/09/02 21:30:09;;;;;;;11.03;9.83;;;18.50;99.90;;;;;;6225309;23;20161;-93
2023/09/02 21:32:41;;;;;;;10.77;8.90;;;18.40;99.90;;;;;;6223809;23;20577;-93
2023/09/02 21:35:08;;;;;;;11.97;9.87;;;18.50;99.90;;;;;;6224500;23;20196;-90
2023/09/02 21:37:35;;;;;;;9.60;8.27;;;18.50;99.90;;;;;;6223236;23;20157;-91
2023/09/02 21:40:01;;;;;;;10.97;8.50;;;18.50;99.90;;;;;;6227469;23;20212;-92
2023/09/02 21:42:26;;;;;;;12.67;9.67;;;18.40;99.90;;;;;;6223093;23;20160;-91
2023/09/02 21:44:55;;;;;;;13.33;9.57;;;18.50;99.90;;;;;;6223587;23;20179;-92
2023/09/02 21:47:22;;;;;;;11.90;10.50;;;18.60;99.90;;;;;;6222566;23;20187;-91
2023/09/02 21:49:49;;;;;;;11.63;10.07;;;18.30;99.90;;;;;;6224614;23;20161;-91
2023/09/02 21:52:16;;;;;;;12.43;10.93;;;18.30;99.90;;;;;;6199245;23;20216;-91
2023/09/02 21:54:42;;;;;;;14.43;11.67;;;18.40;99.90;;;;;;6223216;23;20660;-90
2023/09/02 21:57:07;;;;;;;12.80;11.47;;;18.20;99.90;;;;;;6223290;23;20160;-90
2023/09/02 21:59:33;;;;;;;14.23;12.10;;;18.20;99.90;;;;;;6198059;23;20216;-91
2023/09/02 22:01:59;;;;;;;15.00;11.63;;;18.20;99.90;;;;;;6196348;23;20244;-89
2023/09/02 22:04:25;;;;;;;13.03;11.63;;;18.20;99.90;;;;;;6222841;23;20156;-91
2023/09/02 22:06:52;;;;;;;13.47;11.60;;;19.00;99.90;;;;;;6222575;23;20221;-91
2023/09/02 22:09:18;;;;;;;14.90;13.00;;;18.20;99.90;;;;;;6222461;23;20164;-89
2023/09/02 22:11:44;;;;;;;17.23;12.40;;;18.10;99.90;;;;;;6222533;23;20631;-92
2023/09/02 22:14:10;;;;;;;15.37;12.60;;;18.80;99.90;;;;;;6230882;23;20157;-92
2023/09/02 22:16:35;;;;;;;14.97;12.50;;;18.10;99.90;;;;;;6227428;23;20188;-85
2023/09/02 22:19:01;;;;;;;18.27;12.77;;;18.20;99.90;;;;;;6227560;23;20179;-91
2023/09/02 22:21:27;;;;;;;15.10;12.93;;;18.00;99.90;;;;;;6203129;23;20171;-92
2023/09/02 22:23:53;;;;;;;17.83;13.47;;;18.10;99.90;;;;;;6224626;23;20159;-92
2023/09/02 22:26:18;;;;;;;19.47;13.30;;;18.10;99.90;;;;;;6224634;23;20234;-92
2023/09/02 22:28:44;;;;;;;15.10;12.57;;;18.10;99.90;;;;;;6223498;23;20160;-91
2023/09/02 22:31:10;;;;;;;17.87;13.47;;;18.10;99.90;;;;;;6223885;23;20166;-93
2023/09/02 22:33:36;;;;;;;17.87;13.50;;;18.10;99.90;;;;;;6223000;23;20572;-88
2023/09/02 22:36:02;;;;;;;15.33;11.93;;;18.10;99.90;;;;;;6198569;23;20259;-90
2023/09/02 22:38:33;;;;;;;13.63;12.10;;;18.00;99.90;;;;;;6223048;23;20499;-92